sensor_id;sensor_type;location;lat;lon;timestamp;P1;durP1;ratioP1;P2;durP2;ratioP2
21494;SDS011;10909;53.590;10.054;2023-04-23T00:01:40;2.65;;;2.40;;
21494;SDS011;10909;53.590;10.054;2023-04-23T00:04:07;4.68;;;2.90;;
21494;SDS011;10909;53.590;10.054;2023-04-23T00:06:34;2.92;;;2.60;;
21494;SDS011;10909;53.590;10.054;2023-04-23T00:09:01;2.92;;;2.63;;
21494;SDS011;10909;53.590;10.054;2023-04-23T00:11:28;3.67;;;3.13;;
21494;SDS011;10909;53.590;10.054;2023-04-23T00:13:54;3.47;;;2.95;;
21494;SDS011;10909;53.590;10.054;2023-04-23T00:16:20;2.92;;;2.72;;
21494;SDS011;10909;53.590;10.054;2023-04-23T00:18:46;3.25;;;2.70;;
21494;SDS011;10909;53.590;10.054;2023-04-23T00:21:12;2.70;;;2.50;;
21494;SDS011;10909;53.590;10.054;2023-04-23T00:23:38;3.60;;;2.97;;
21494;SDS011;10909;53.590;10.054;2023-04-23T00:26:04;3.38;;;2.90;;
21494;SDS011;10909;53.590;10.054;2023-04-23T00:28:30;4.25;;;2.90;;
21494;SDS011;10909;53.590;10.054;2023-04-23T00:30:57;5.35;;;3.22;;
21494;SDS011;10909;53.590;10.054;2023-04-23T00:33:23;3.13;;;2.80;;
21494;SDS011;10909;53.590;10.054;2023-04-23T00:35:49;3.47;;;3.17;;
21494;SDS011;10909;53.590;10.054;2023-04-23T00:38:15;3.58;;;3.20;;
21494;SDS011;10909;53.590;10.054;2023-04-23T00:40:41;3.42;;;3.13;;
21494;SDS011;10909;53.590;10.054;2023-04-23T00:43:07;3.97;;;3.15;;
21494;SDS011;10909;53.590;10.054;2023-04-23T00:45:33;4.80;;;3.65;;
21494;SDS011;10909;53.590;10.054;2023-04-23T00:47:59;3.78;;;3.47;;
21494;SDS011;10909;53.590;10.054;2023-04-23T00:50:29;4.65;;;3.70;;
21494;SDS011;10909;53.590;10.054;2023-04-23T00:52:57;4.20;;;3.58;;
21494;SDS011;10909;53.590;10.054;2023-04-23T00:55:23;4.65;;;3.58;;
21494;SDS011;10909;53.590;10.054;2023-04-23T00:57:49;3.40;;;3.10;;
21494;SDS011;10909;53.590;10.054;2023-04-23T01:00:15;3.92;;;3.63;;
21494;SDS011;10909;53.590;10.054;2023-04-23T01:02:42;3.72;;;3.33;;
21494;SDS011;10909;53.590;10.054;2023-04-23T01:05:09;4.55;;;3.80;;
21494;SDS011;10909;53.590;10.054;2023-04-23T01:07:38;4.20;;;3.55;;
21494;SDS011;10909;53.590;10.054;2023-04-23T01:10:05;5.63;;;4.28;;
21494;SDS011;10909;53.590;10.054;2023-04-23T01:12:32;4.93;;;4.10;;
21494;SDS011;10909;53.590;10.054;2023-04-23T01:14:58;4.35;;;3.83;;
21494;SDS011;10909;53.590;10.054;2023-04-23T01:17:25;5.47;;;4.18;;
21494;SDS011;10909;53.590;10.054;2023-04-23T01:19:51;4.90;;;4.43;;
21494;SDS011;10909;53.590;10.054;2023-04-23T01:22:17;4.32;;;3.83;;
21494;SDS011;10909;53.590;10.054;2023-04-23T01:24:43;4.82;;;4.18;;
21494;SDS011;10909;53.590;10.054;2023-04-23T01:27:09;5.00;;;4.25;;
21494;SDS011;10909;53.590;10.054;2023-04-23T01:29:36;4.85;;;4.35;;
21494;SDS011;10909;53.590;10.054;2023-04-23T01:32:03;4.88;;;3.97;;
21494;SDS011;10909;53.590;10.054;2023-04-23T01:34:31;4.60;;;4.07;;
21494;SDS011;10909;53.590;10.054;2023-04-23T01:36:57;4.60;;;3.72;;
21494;SDS011;10909;53.590;10.054;2023-04-23T01:39:24;4.65;;;4.10;;
21494;SDS011;10909;53.590;10.054;2023-04-23T01:41:52;4.72;;;3.83;;
21494;SDS011;10909;53.590;10.054;2023-04-23T01:44:25;4.50;;;3.40;;
21494;SDS011;10909;53.590;10.054;2023-04-23T01:47:00;4.05;;;3.60;;
21494;SDS011;10909;53.590;10.054;2023-04-23T01:49:52;3.70;;;3.35;;
21494;SDS011;10909;53.590;10.054;2023-04-23T01:52:23;5.00;;;4.30;;
21494;SDS011;10909;53.590;10.054;2023-04-23T01:54:49;5.00;;;4.53;;
21494;SDS011;10909;53.590;10.054;2023-04-23T01:57:15;4.68;;;4.22;;
21494;SDS011;10909;53.590;10.054;2023-04-23T01:59:47;4.95;;;4.45;;
21494;SDS011;10909;53.590;10.054;2023-04-23T02:02:14;4.05;;;3.72;;
21494;SDS011;10909;53.590;10.054;2023-04-23T02:04:40;5.15;;;4.70;;
21494;SDS011;10909;53.590;10.054;2023-04-23T02:07:09;5.78;;;4.55;;
21494;SDS011;10909;53.590;10.054;2023-04-23T02:09:36;6.43;;;5.82;;
21494;SDS011;10909;53.590;10.054;2023-04-23T02:12:02;7.05;;;6.40;;
21494;SDS011;10909;53.590;10.054;2023-04-23T02:14:28;7.70;;;7.00;;
21494;SDS011;10909;53.590;10.054;2023-04-23T02:16:54;9.63;;;8.73;;
21494;SDS011;10909;53.590;10.054;2023-04-23T02:19:20;8.98;;;8.07;;
21494;SDS011;10909;53.590;10.054;2023-04-23T02:21:46;10.55;;;9.45;;
21494;SDS011;10909;53.590;10.054;2023-04-23T02:24:16;11.25;;;9.07;;
21494;SDS011;10909;53.590;10.054;2023-04-23T02:26:48;10.10;;;9.13;;
21494;SDS011;10909;53.590;10.054;2023-04-23T02:29:14;11.15;;;10.02;;
21494;SDS011;10909;53.590;10.054;2023-04-23T02:31:40;11.57;;;10.38;;
21494;SDS011;10909;53.590;10.054;2023-04-23T02:34:05;10.30;;;9.27;;
21494;SDS011;10909;53.590;10.054;2023-04-23T02:36:31;10.82;;;9.57;;
21494;SDS011;10909;53.590;10.054;2023-04-23T02:38:57;12.35;;;10.55;;
21494;SDS011;10909;53.590;10.054;2023-04-23T02:41:22;10.77;;;9.67;;
21494;SDS011;10909;53.590;10.054;2023-04-23T02:43:50;11.23;;;9.80;;
21494;SDS011;10909;53.590;10.054;2023-04-23T02:46:16;10.90;;;9.13;;
21494;SDS011;10909;53.590;10.054;2023-04-23T02:48:41;10.57;;;9.47;;
21494;SDS011;10909;53.590;10.054;2023-04-23T02:51:09;9.93;;;8.67;;
21494;SDS011;10909;53.590;10.054;2023-04-23T02:53:38;9.53;;;8.40;;
21494;SDS011;10909;53.590;10.054;2023-04-23T02:56:10;10.67;;;8.63;;
21494;SDS011;10909;53.590;10.054;2023-04-23T02:58:35;12.20;;;9.70;;
21494;SDS011;10909;53.590;10.054;2023-04-23T03:01:06;10.90;;;9.17;;
21494;SDS011;10909;53.590;10.054;2023-04-23T03:03:32;8.73;;;7.60;;
21494;SDS011;10909;53.590;10.054;2023-04-23T03:05:58;11.97;;;10.40;;
21494;SDS011;10909;53.590;10.054;2023-04-23T03:08:26;9.17;;;8.27;;
21494;SDS011;10909;53.590;10.054;2023-04-23T03:10:52;9.80;;;8.80;;
21494;SDS011;10909;53.590;10.054;2023-04-23T03:13:18;9.97;;;8.77;;
21494;SDS011;10909;53.590;10.054;2023-04-23T03:15:45;10.23;;;8.77;;
21494;SDS011;10909;53.590;10.054;2023-04-23T03:18:12;9.37;;;8.00;;
21494;SDS011;10909;53.590;10.054;2023-04-23T03:20:37;11.27;;;8.30;;
21494;SDS011;10909;53.590;10.054;2023-04-23T03:23:03;8.40;;;7.20;;
21494;SDS011;10909;53.590;10.054;2023-04-23T03:25:32;8.97;;;7.47;;
21494;SDS011;10909;53.590;10.054;2023-04-23T03:27:59;8.67;;;7.77;;
21494;SDS011;10909;53.590;10.054;2023-04-23T03:30:26;7.67;;;6.47;;
21494;SDS011;10909;53.590;10.054;2023-04-23T03:32:53;7.80;;;6.80;;
21494;SDS011;10909;53.590;10.054;2023-04-23T03:35:20;6.80;;;6.10;;
21494;SDS011;10909;53.590;10.054;2023-04-23T03:37:47;7.60;;;6.07;;
21494;SDS011;10909;53.590;10.054;2023-04-23T03:40:13;8.87;;;7.60;;
21494;SDS011;10909;53.590;10.054;2023-04-23T03:42:38;9.97;;;7.80;;
21494;SDS011;10909;53.590;10.054;2023-04-23T03:45:05;6.93;;;6.23;;
21494;SDS011;10909;53.590;10.054;2023-04-23T03:47:31;7.30;;;6.43;;
21494;SDS011;10909;53.590;10.054;2023-04-23T03:49:57;7.97;;;6.10;;
21494;SDS011;10909;53.590;10.054;2023-04-23T03:52:23;8.13;;;6.80;;
21494;SDS011;10909;53.590;10.054;2023-04-23T03:54:49;6.50;;;5.80;;
21494;SDS011;10909;53.590;10.054;2023-04-23T03:57:15;6.93;;;5.63;;
21494;SDS011;10909;53.590;10.054;2023-04-23T03:59:41;7.07;;;5.80;;
21494;SDS011;10909;53.590;10.054;2023-04-23T04:02:06;5.93;;;5.30;;
21494;SDS011;10909;53.590;10.054;2023-04-23T04:04:32;7.23;;;5.40;;
21494;SDS011;10909;53.590;10.054;2023-04-23T04:06:58;7.23;;;5.77;;
21494;SDS011;10909;53.590;10.054;2023-04-23T04:09:25;7.20;;;5.47;;
21494;SDS011;10909;53.590;10.054;2023-04-23T04:11:53;8.73;;;6.20;;
21494;SDS011;10909;53.590;10.054;2023-04-23T04:14:19;6.40;;;5.27;;
21494;SDS011;10909;53.590;10.054;2023-04-23T04:16:45;6.67;;;5.20;;
21494;SDS011;10909;53.590;10.054;2023-04-23T04:19:11;5.83;;;5.23;;
21494;SDS011;10909;53.590;10.054;2023-04-23T04:21:37;6.97;;;5.57;;
21494;SDS011;10909;53.590;10.054;2023-04-23T04:24:03;6.27;;;5.00;;
21494;SDS011;10909;53.590;10.054;2023-04-23T04:26:35;6.70;;;5.10;;
21494;SDS011;10909;53.590;10.054;2023-04-23T04:29:01;6.03;;;4.63;;
21494;SDS011;10909;53.590;10.054;2023-04-23T04:31:28;7.47;;;4.90;;
21494;SDS011;10909;53.590;10.054;2023-04-23T04:33:55;6.80;;;4.47;;
21494;SDS011;10909;53.590;10.054;2023-04-23T04:36:21;5.00;;;4.40;;
21494;SDS011;10909;53.590;10.054;2023-04-23T04:38:49;4.20;;;3.73;;
21494;SDS011;10909;53.590;10.054;2023-04-23T04:41:16;4.60;;;4.07;;
21494;SDS011;10909;53.590;10.054;2023-04-23T04:43:44;4.67;;;4.20;;
21494;SDS011;10909;53.590;10.054;2023-04-23T04:46:10;4.53;;;3.53;;
21494;SDS011;10909;53.590;10.054;2023-04-23T04:48:37;4.10;;;3.70;;
21494;SDS011;10909;53.590;10.054;2023-04-23T04:51:02;4.03;;;3.63;;
21494;SDS011;10909;53.590;10.054;2023-04-23T04:53:28;3.97;;;3.43;;
21494;SDS011;10909;53.590;10.054;2023-04-23T04:55:54;4.87;;;3.80;;
21494;SDS011;10909;53.590;10.054;2023-04-23T04:58:20;4.10;;;3.57;;
21494;SDS011;10909;53.590;10.054;2023-04-23T05:00:45;5.63;;;3.97;;
21494;SDS011;10909;53.590;10.054;2023-04-23T05:03:15;4.90;;;3.53;;
21494;SDS011;10909;53.590;10.054;2023-04-23T05:05:44;4.23;;;3.37;;
21494;SDS011;10909;53.590;10.054;2023-04-23T05:08:15;4.53;;;3.60;;
21494;SDS011;10909;53.590;10.054;2023-04-23T05:10:47;4.13;;;3.73;;
21494;SDS011;10909;53.590;10.054;2023-04-23T05:13:18;4.97;;;4.00;;
21494;SDS011;10909;53.590;10.054;2023-04-23T05:15:46;4.30;;;3.90;;
21494;SDS011;10909;53.590;10.054;2023-04-23T05:18:12;4.93;;;4.00;;
21494;SDS011;10909;53.590;10.054;2023-04-23T05:20:38;5.00;;;3.83;;
21494;SDS011;10909;53.590;10.054;2023-04-23T05:23:05;4.17;;;3.77;;
21494;SDS011;10909;53.590;10.054;2023-04-23T05:25:31;4.40;;;3.80;;
21494;SDS011;10909;53.590;10.054;2023-04-23T05:27:58;3.20;;;2.90;;
21494;SDS011;10909;53.590;10.054;2023-04-23T05:30:24;5.10;;;3.27;;
21494;SDS011;10909;53.590;10.054;2023-04-23T05:32:49;4.83;;;2.33;;
21494;SDS011;10909;53.590;10.054;2023-04-23T05:35:15;3.40;;;3.10;;
21494;SDS011;10909;53.590;10.054;2023-04-23T05:37:43;3.73;;;3.00;;
21494;SDS011;10909;53.590;10.054;2023-04-23T05:40:11;5.37;;;3.27;;
21494;SDS011;10909;53.590;10.054;2023-04-23T05:42:37;4.67;;;2.90;;
21494;SDS011;10909;53.590;10.054;2023-04-23T05:45:04;4.17;;;3.00;;
21494;SDS011;10909;53.590;10.054;2023-04-23T05:47:31;3.00;;;2.70;;
21494;SDS011;10909;53.590;10.054;2023-04-23T05:49:56;3.67;;;2.73;;
21494;SDS011;10909;53.590;10.054;2023-04-23T05:52:23;3.10;;;2.43;;
21494;SDS011;10909;53.590;10.054;2023-04-23T05:54:49;2.60;;;2.20;;
21494;SDS011;10909;53.590;10.054;2023-04-23T05:57:15;3.63;;;2.90;;
21494;SDS011;10909;53.590;10.054;2023-04-23T05:59:41;3.03;;;2.70;;
21494;SDS011;10909;53.590;10.054;2023-04-23T06:02:07;3.07;;;2.67;;
21494;SDS011;10909;53.590;10.054;2023-04-23T06:04:34;3.03;;;2.50;;
21494;SDS011;10909;53.590;10.054;2023-04-23T06:07:02;3.40;;;2.87;;
21494;SDS011;10909;53.590;10.054;2023-04-23T06:09:28;2.93;;;2.27;;
21494;SDS011;10909;53.590;10.054;2023-04-23T06:11:54;3.20;;;2.90;;
21494;SDS011;10909;53.590;10.054;2023-04-23T06:14:19;3.90;;;2.70;;
21494;SDS011;10909;53.590;10.054;2023-04-23T06:16:45;3.77;;;2.87;;
21494;SDS011;10909;53.590;10.054;2023-04-23T06:19:11;3.63;;;3.30;;
21494;SDS011;10909;53.590;10.054;2023-04-23T06:21:36;3.47;;;2.90;;
21494;SDS011;10909;53.590;10.054;2023-04-23T06:24:02;3.97;;;3.10;;
21494;SDS011;10909;53.590;10.054;2023-04-23T06:26:29;3.33;;;2.77;;
21494;SDS011;10909;53.590;10.054;2023-04-23T06:28:55;3.47;;;2.70;;
21494;SDS011;10909;53.590;10.054;2023-04-23T06:31:21;3.87;;;2.37;;
21494;SDS011;10909;53.590;10.054;2023-04-23T06:33:46;2.50;;;2.27;;
21494;SDS011;10909;53.590;10.054;2023-04-23T06:36:12;4.23;;;2.73;;
21494;SDS011;10909;53.590;10.054;2023-04-23T06:38:41;3.20;;;2.70;;
21494;SDS011;10909;53.590;10.054;2023-04-23T06:41:11;3.50;;;2.17;;
21494;SDS011;10909;53.590;10.054;2023-04-23T06:43:37;2.90;;;2.57;;
21494;SDS011;10909;53.590;10.054;2023-04-23T06:46:03;2.23;;;2.03;;
21494;SDS011;10909;53.590;10.054;2023-04-23T06:48:29;2.80;;;2.37;;
21494;SDS011;10909;53.590;10.054;2023-04-23T06:50:56;2.60;;;2.40;;
21494;SDS011;10909;53.590;10.054;2023-04-23T06:53:22;2.67;;;2.37;;
21494;SDS011;10909;53.590;10.054;2023-04-23T06:55:48;2.70;;;2.27;;
21494;SDS011;10909;53.590;10.054;2023-04-23T06:58:15;3.00;;;2.70;;
21494;SDS011;10909;53.590;10.054;2023-04-23T07:00:42;2.93;;;2.30;;
21494;SDS011;10909;53.590;10.054;2023-04-23T07:03:08;2.47;;;2.20;;
21494;SDS011;10909;53.590;10.054;2023-04-23T07:05:33;2.90;;;2.27;;
21494;SDS011;10909;53.590;10.054;2023-04-23T07:08:01;3.17;;;2.27;;
21494;SDS011;10909;53.590;10.054;2023-04-23T07:10:27;3.17;;;2.23;;
21494;SDS011;10909;53.590;10.054;2023-04-23T07:12:53;2.47;;;2.27;;
21494;SDS011;10909;53.590;10.054;2023-04-23T07:15:24;2.43;;;1.90;;
21494;SDS011;10909;53.590;10.054;2023-04-23T07:17:51;2.60;;;2.20;;
21494;SDS011;10909;53.590;10.054;2023-04-23T07:20:17;2.57;;;2.37;;
21494;SDS011;10909;53.590;10.054;2023-04-23T07:22:44;2.57;;;2.30;;
21494;SDS011;10909;53.590;10.054;2023-04-23T07:25:16;3.03;;;2.57;;
21494;SDS011;10909;53.590;10.054;2023-04-23T07:27:50;4.17;;;3.10;;
21494;SDS011;10909;53.590;10.054;2023-04-23T07:30:15;3.77;;;2.70;;
21494;SDS011;10909;53.590;10.054;2023-04-23T07:32:41;3.83;;;3.00;;
21494;SDS011;10909;53.590;10.054;2023-04-23T07:35:07;4.25;;;2.90;;
21494;SDS011;10909;53.590;10.054;2023-04-23T07:37:34;3.58;;;2.67;;
21494;SDS011;10909;53.590;10.054;2023-04-23T07:40:01;2.85;;;2.40;;
21494;SDS011;10909;53.590;10.054;2023-04-23T07:42:28;2.97;;;2.67;;
21494;SDS011;10909;53.590;10.054;2023-04-23T07:44:56;2.97;;;2.67;;
21494;SDS011;10909;53.590;10.054;2023-04-23T07:47:22;2.83;;;2.33;;
21494;SDS011;10909;53.590;10.054;2023-04-23T07:49:49;2.70;;;2.50;;
21494;SDS011;10909;53.590;10.054;2023-04-23T07:52:15;3.80;;;3.00;;
21494;SDS011;10909;53.590;10.054;2023-04-23T07:54:41;3.63;;;2.42;;
21494;SDS011;10909;53.590;10.054;2023-04-23T07:57:07;2.88;;;2.58;;
21494;SDS011;10909;53.590;10.054;2023-04-23T07:59:34;3.40;;;2.80;;
21494;SDS011;10909;53.590;10.054;2023-04-23T08:02:02;3.20;;;2.63;;
21494;SDS011;10909;53.590;10.054;2023-04-23T08:04:31;3.00;;;2.70;;
21494;SDS011;10909;53.590;10.054;2023-04-23T08:06:59;2.83;;;2.63;;
21494;SDS011;10909;53.590;10.054;2023-04-23T08:09:24;2.47;;;2.28;;
21494;SDS011;10909;53.590;10.054;2023-04-23T08:11:50;3.30;;;2.58;;
21494;SDS011;10909;53.590;10.054;2023-04-23T08:14:16;3.38;;;2.42;;
21494;SDS011;10909;53.590;10.054;2023-04-23T08:16:42;4.32;;;3.00;;
21494;SDS011;10909;53.590;10.054;2023-04-23T08:19:08;4.07;;;2.72;;
21494;SDS011;10909;53.590;10.054;2023-04-23T08:21:34;3.70;;;2.50;;
21494;SDS011;10909;53.590;10.054;2023-04-23T08:24:01;3.10;;;2.80;;
21494;SDS011;10909;53.590;10.054;2023-04-23T08:26:29;5.13;;;3.08;;
21494;SDS011;10909;53.590;10.054;2023-04-23T08:28:55;3.17;;;2.88;;
21494;SDS011;10909;53.590;10.054;2023-04-23T08:31:22;2.47;;;2.20;;
21494;SDS011;10909;53.590;10.054;2023-04-23T08:33:47;3.13;;;2.83;;
21494;SDS011;10909;53.590;10.054;2023-04-23T08:36:15;3.47;;;2.97;;
21494;SDS011;10909;53.590;10.054;2023-04-23T08:38:41;5.47;;;3.20;;
21494;SDS011;10909;53.590;10.054;2023-04-23T08:41:08;3.85;;;3.45;;
21494;SDS011;10909;53.590;10.054;2023-04-23T08:43:46;3.85;;;3.08;;
21494;SDS011;10909;53.590;10.054;2023-04-23T08:46:16;4.80;;;3.47;;
21494;SDS011;10909;53.590;10.054;2023-04-23T08:48:43;5.45;;;3.33;;
21494;SDS011;10909;53.590;10.054;2023-04-23T08:51:12;4.30;;;3.90;;
21494;SDS011;10909;53.590;10.054;2023-04-23T08:53:43;4.28;;;3.72;;
21494;SDS011;10909;53.590;10.054;2023-04-23T08:56:16;4.72;;;4.00;;
21494;SDS011;10909;53.590;10.054;2023-04-23T08:58:49;5.43;;;3.90;;
21494;SDS011;10909;53.590;10.054;2023-04-23T09:01:23;4.30;;;3.63;;
21494;SDS011;10909;53.590;10.054;2023-04-23T09:03:49;4.72;;;3.95;;
21494;SDS011;10909;53.590;10.054;2023-04-23T09:06:16;4.20;;;3.60;;
21494;SDS011;10909;53.590;10.054;2023-04-23T09:08:44;3.88;;;3.47;;
21494;SDS011;10909;53.590;10.054;2023-04-23T09:11:11;4.70;;;3.20;;
21494;SDS011;10909;53.590;10.054;2023-04-23T09:13:37;7.50;;;3.10;;
21494;SDS011;10909;53.590;10.054;2023-04-23T09:16:05;4.72;;;3.45;;
21494;SDS011;10909;53.590;10.054;2023-04-23T09:18:31;3.30;;;3.00;;
21494;SDS011;10909;53.590;10.054;2023-04-23T09:20:57;4.30;;;3.42;;
21494;SDS011;10909;53.590;10.054;2023-04-23T09:23:25;6.43;;;3.42;;
21494;SDS011;10909;53.590;10.054;2023-04-23T09:25:50;5.22;;;3.30;;
21494;SDS011;10909;53.590;10.054;2023-04-23T09:28:19;3.47;;;3.17;;
21494;SDS011;10909;53.590;10.054;2023-04-23T09:31:10;3.50;;;3.13;;
21494;SDS011;10909;53.590;10.054;2023-04-23T09:33:35;4.60;;;3.55;;
21494;SDS011;10909;53.590;10.054;2023-04-23T09:36:08;3.75;;;3.40;;
21494;SDS011;10909;53.590;10.054;2023-04-23T09:38:36;3.95;;;3.47;;
21494;SDS011;10909;53.590;10.054;2023-04-23T09:41:24;3.72;;;3.33;;
21494;SDS011;10909;53.590;10.054;2023-04-23T09:43:53;3.47;;;3.17;;
21494;SDS011;10909;53.590;10.054;2023-04-23T09:49:02;5.70;;;3.67;;
21494;SDS011;10909;53.590;10.054;2023-04-23T09:51:32;4.53;;;4.07;;
21494;SDS011;10909;53.590;10.054;2023-04-23T09:54:16;4.80;;;3.55;;
21494;SDS011;10909;53.590;10.054;2023-04-23T09:56:44;4.00;;;3.25;;
21494;SDS011;10909;53.590;10.054;2023-04-23T09:59:27;4.43;;;3.50;;
21494;SDS011;10909;53.590;10.054;2023-04-23T10:01:54;5.18;;;4.18;;
21494;SDS011;10909;53.590;10.054;2023-04-23T10:04:21;4.65;;;4.25;;
21494;SDS011;10909;53.590;10.054;2023-04-23T10:06:55;3.83;;;3.40;;
21494;SDS011;10909;53.590;10.054;2023-04-23T10:09:22;4.13;;;3.72;;
21494;SDS011;10909;53.590;10.054;2023-04-23T10:11:55;4.40;;;4.00;;
21494;SDS011;10909;53.590;10.054;2023-04-23T10:14:23;5.00;;;3.75;;
21494;SDS011;10909;53.590;10.054;2023-04-23T10:16:51;3.97;;;3.58;;
21494;SDS011;10909;53.590;10.054;2023-04-23T10:19:21;6.38;;;3.80;;
21494;SDS011;10909;53.590;10.054;2023-04-23T10:21:55;4.32;;;3.92;;
21494;SDS011;10909;53.590;10.054;2023-04-23T10:24:27;4.18;;;3.67;;
21494;SDS011;10909;53.590;10.054;2023-04-23T10:26:56;4.07;;;3.40;;
21494;SDS011;10909;53.590;10.054;2023-04-23T10:29:28;4.45;;;2.90;;
21494;SDS011;10909;53.590;10.054;2023-04-23T10:31:55;3.50;;;3.20;;
21494;SDS011;10909;53.590;10.054;2023-04-23T10:34:28;4.30;;;3.90;;
21494;SDS011;10909;53.590;10.054;2023-04-23T10:36:56;5.15;;;3.85;;
21494;SDS011;10909;53.590;10.054;2023-04-23T10:39:24;4.13;;;3.72;;
21494;SDS011;10909;53.590;10.054;2023-04-23T10:41:52;5.63;;;4.40;;
21494;SDS011;10909;53.590;10.054;2023-04-23T10:44:20;4.68;;;4.10;;
21494;SDS011;10909;53.590;10.054;2023-04-23T10:46:49;4.95;;;4.45;;
21494;SDS011;10909;53.590;10.054;2023-04-23T10:49:21;4.88;;;4.47;;
21494;SDS011;10909;53.590;10.054;2023-04-23T10:51:48;5.20;;;4.70;;
21494;SDS011;10909;53.590;10.054;2023-04-23T10:54:22;5.13;;;4.57;;
21494;SDS011;10909;53.590;10.054;2023-04-23T10:56:57;5.20;;;4.70;;
21494;SDS011;10909;53.590;10.054;2023-04-23T10:59:33;5.32;;;4.82;;
21494;SDS011;10909;53.590;10.054;2023-04-23T11:02:08;5.40;;;4.90;;
21494;SDS011;10909;53.590;10.054;2023-04-23T11:04:43;4.75;;;4.20;;
21494;SDS011;10909;53.590;10.054;2023-04-23T11:07:19;4.75;;;4.25;;
21494;SDS011;10909;53.590;10.054;2023-04-23T11:09:57;4.78;;;4.30;;
21494;SDS011;10909;53.590;10.054;2023-04-23T11:14:54;5.18;;;4.22;;
21494;SDS011;10909;53.590;10.054;2023-04-23T11:20:13;4.57;;;4.05;;
21494;SDS011;10909;53.590;10.054;2023-04-23T11:22:42;4.70;;;4.30;;
21494;SDS011;10909;53.590;10.054;2023-04-23T11:25:09;5.20;;;4.55;;
21494;SDS011;10909;53.590;10.054;2023-04-23T11:27:39;4.63;;;4.22;;
21494;SDS011;10909;53.590;10.054;2023-04-23T11:30:28;5.10;;;4.60;;
21494;SDS011;10909;53.590;10.054;2023-04-23T11:32:56;5.22;;;4.72;;
21494;SDS011;10909;53.590;10.054;2023-04-23T11:35:24;4.93;;;4.47;;
21494;SDS011;10909;53.590;10.054;2023-04-23T11:37:54;5.38;;;4.05;;
21494;SDS011;10909;53.590;10.054;2023-04-23T11:40:21;4.93;;;4.43;;
21494;SDS011;10909;53.590;10.054;2023-04-23T11:42:52;4.63;;;4.22;;
21494;SDS011;10909;53.590;10.054;2023-04-23T11:45:19;5.22;;;4.00;;
21494;SDS011;10909;53.590;10.054;2023-04-23T11:47:53;5.28;;;4.78;;
21494;SDS011;10909;53.590;10.054;2023-04-23T11:50:29;5.75;;;5.25;;
21494;SDS011;10909;53.590;10.054;2023-04-23T11:53:09;4.97;;;4.50;;
21494;SDS011;10909;53.590;10.054;2023-04-23T11:55:52;4.60;;;4.20;;
21494;SDS011;10909;53.590;10.054;2023-04-23T11:58:26;5.32;;;4.55;;
21494;SDS011;10909;53.590;10.054;2023-04-23T12:00:58;5.30;;;4.38;;
21494;SDS011;10909;53.590;10.054;2023-04-23T12:03:25;4.40;;;3.80;;
21494;SDS011;10909;53.590;10.054;2023-04-23T12:06:02;5.20;;;4.70;;
21494;SDS011;10909;53.590;10.054;2023-04-23T12:08:35;4.32;;;3.95;;
21494;SDS011;10909;53.590;10.054;2023-04-23T12:11:04;4.70;;;4.28;;
21494;SDS011;10909;53.590;10.054;2023-04-23T12:13:38;4.60;;;4.20;;
21494;SDS011;10909;53.590;10.054;2023-04-23T12:16:14;4.90;;;4.40;;
21494;SDS011;10909;53.590;10.054;2023-04-23T12:18:41;4.70;;;4.28;;
21494;SDS011;10909;53.590;10.054;2023-04-23T12:21:15;4.30;;;4.00;;
21494;SDS011;10909;53.590;10.054;2023-04-23T12:23:42;4.00;;;3.70;;
21494;SDS011;10909;53.590;10.054;2023-04-23T12:26:12;3.97;;;3.55;;
21494;SDS011;10909;53.590;10.054;2023-04-23T12:28:51;3.20;;;2.90;;
21494;SDS011;10909;53.590;10.054;2023-04-23T12:31:23;3.10;;;2.80;;
21494;SDS011;10909;53.590;10.054;2023-04-23T12:36:28;3.92;;;3.50;;
21494;SDS011;10909;53.590;10.054;2023-04-23T12:41:47;3.42;;;3.13;;
21494;SDS011;10909;53.590;10.054;2023-04-23T12:44:34;3.00;;;2.80;;
21494;SDS011;10909;53.590;10.054;2023-04-23T12:47:02;2.90;;;2.60;;
21494;SDS011;10909;53.590;10.054;2023-04-23T12:49:30;3.03;;;2.83;;
21494;SDS011;10909;53.590;10.054;2023-04-23T12:51:57;3.03;;;2.72;;
21494;SDS011;10909;53.590;10.054;2023-04-23T12:54:27;2.78;;;2.55;;
21494;SDS011;10909;53.590;10.054;2023-04-23T12:56:57;2.67;;;2.47;;
21494;SDS011;10909;53.590;10.054;2023-04-23T12:59:23;2.30;;;2.15;;
21494;SDS011;10909;53.590;10.054;2023-04-23T13:01:50;2.50;;;2.30;;
21494;SDS011;10909;53.590;10.054;2023-04-23T13:04:16;2.40;;;2.17;;
21494;SDS011;10909;53.590;10.054;2023-04-23T13:06:42;2.70;;;2.50;;
21494;SDS011;10909;53.590;10.054;2023-04-23T13:09:08;2.60;;;2.40;;
21494;SDS011;10909;53.590;10.054;2023-04-23T13:11:35;2.72;;;2.20;;
21494;SDS011;10909;53.590;10.054;2023-04-23T13:14:02;2.40;;;2.20;;
21494;SDS011;10909;53.590;10.054;2023-04-23T13:16:28;4.50;;;2.92;;
21494;SDS011;10909;53.590;10.054;2023-04-23T13:18:54;2.78;;;2.42;;
21494;SDS011;10909;53.590;10.054;2023-04-23T13:21:20;2.35;;;2.10;;
21494;SDS011;10909;53.590;10.054;2023-04-23T13:23:45;2.13;;;2.03;;
21494;SDS011;10909;53.590;10.054;2023-04-23T13:26:11;2.28;;;2.08;;
21494;SDS011;10909;53.590;10.054;2023-04-23T13:28:37;1.90;;;1.80;;
21494;SDS011;10909;53.590;10.054;2023-04-23T13:31:04;2.40;;;2.03;;
21494;SDS011;10909;53.590;10.054;2023-04-23T13:33:30;2.30;;;1.83;;
21494;SDS011;10909;53.590;10.054;2023-04-23T13:35:57;2.88;;;1.90;;
21494;SDS011;10909;53.590;10.054;2023-04-23T13:38:26;2.22;;;2.03;;
21494;SDS011;10909;53.590;10.054;2023-04-23T13:40:52;2.20;;;2.00;;
21494;SDS011;10909;53.590;10.054;2023-04-23T13:43:18;3.30;;;2.35;;
21494;SDS011;10909;53.590;10.054;2023-04-23T13:45:46;2.28;;;2.03;;
21494;SDS011;10909;53.590;10.054;2023-04-23T13:48:13;2.35;;;2.15;;
21494;SDS011;10909;53.590;10.054;2023-04-23T13:50:41;2.88;;;1.83;;
21494;SDS011;10909;53.590;10.054;2023-04-23T13:53:08;2.10;;;1.90;;
21494;SDS011;10909;53.590;10.054;2023-04-23T13:55:35;1.88;;;1.70;;
21494;SDS011;10909;53.590;10.054;2023-04-23T13:58:05;1.88;;;1.77;;
21494;SDS011;10909;53.590;10.054;2023-04-23T14:00:31;1.73;;;1.60;;
21494;SDS011;10909;53.590;10.054;2023-04-23T14:02:57;2.65;;;1.80;;
21494;SDS011;10909;53.590;10.054;2023-04-23T14:05:23;1.70;;;1.60;;
21494;SDS011;10909;53.590;10.054;2023-04-23T14:07:49;2.05;;;1.50;;
21494;SDS011;10909;53.590;10.054;2023-04-23T14:10:15;2.47;;;1.90;;
21494;SDS011;10909;53.590;10.054;2023-04-23T14:12:40;1.85;;;1.73;;
21494;SDS011;10909;53.590;10.054;2023-04-23T14:15:06;2.65;;;1.75;;
21494;SDS011;10909;53.590;10.054;2023-04-23T14:17:33;1.58;;;1.48;;
21494;SDS011;10909;53.590;10.054;2023-04-23T14:19:59;1.88;;;1.67;;
21494;SDS011;10909;53.590;10.054;2023-04-23T14:22:25;2.05;;;1.85;;
21494;SDS011;10909;53.590;10.054;2023-04-23T14:24:55;1.70;;;1.52;;
21494;SDS011;10909;53.590;10.054;2023-04-23T14:27:25;1.60;;;1.50;;
21494;SDS011;10909;53.590;10.054;2023-04-23T14:29:55;2.28;;;1.67;;
21494;SDS011;10909;53.590;10.054;2023-04-23T14:32:23;1.70;;;1.60;;
21494;SDS011;10909;53.590;10.054;2023-04-23T14:34:52;1.60;;;1.50;;
21494;SDS011;10909;53.590;10.054;2023-04-23T14:37:28;2.20;;;2.00;;
21494;SDS011;10909;53.590;10.054;2023-04-23T14:40:08;2.88;;;2.35;;
21494;SDS011;10909;53.590;10.054;2023-04-23T14:42:37;3.53;;;2.70;;
21494;SDS011;10909;53.590;10.054;2023-04-23T14:45:03;3.67;;;2.60;;
21494;SDS011;10909;53.590;10.054;2023-04-23T14:47:29;3.17;;;2.65;;
21494;SDS011;10909;53.590;10.054;2023-04-23T14:49:54;2.10;;;1.90;;
21494;SDS011;10909;53.590;10.054;2023-04-23T14:52:22;1.83;;;1.65;;